Impacts TAF Board INFO
FOR SITUATIONAL AWARENESS. NOT TO BE USED FOR FLIGHT PLANNING PURPOSES.
IDs:

KDEN - Denver Intl, CO, US

Issued at 0957 UTC 18 Aug 2017
Updated at 1059 UTC 18 Aug 2017
Potential Impact None Slight Moderate High
Time1053Z 18/11Z 18/12Z 18/13Z 18/14Z 18/15Z 18/16Z 18/17Z 18/18Z 18/19Z 18/20Z 18/21Z 18/22Z 18/23Z>>
Type OBS PRVL PRVL PRVL PRVL PRVL PRVL PRVL PRVL PRVL PRVL PRVL PRVL PRVL
VIS 10 >6 >6 >6 >6 >6 >6 >6 >6 >6 >6 >6 >6 >6
CIG -- -- -- -- -- -- -- -- -- -- -- -- -- --
Cover CLR FEW FEW FEW FEW FEW FEW FEW FEW FEW FEW FEW FEW FEW
FltCat VFR VFR VFR VFR VFR VFR VFR VFR VFR VFR VFR VFR VFR VFR
WX -- -- -- -- -- -- -- -- -- -- -- -- -- --
WDir 330 320 240 240 240 240 290 290 290 30 30 30 30 30
WSpd 7 8 5 5 5 5 6 6 6 7 7 7 7 7
WGst -- -- -- -- -- -- -- -- -- -- -- -- -- --

Raw TAF
KDEN 180957Z 1810/1912 32008KT P6SM FEW110
  FM181200 24005KT P6SM FEW120
  FM181600 29006KT P6SM FEW120
  FM181900 03007KT P6SM FEW100
  FM190200 14011KT P6SM SCT120
  FM190400 20010KT P6SM SKC


Raw METAR
KDEN 181053Z 33007KT 10SM CLR 14/08 A3018 RMK AO2 SLP146 T01390083
KDEN 180953Z 31008KT 10SM FEW100 15/08 A3018 RMK AO2 SLP140 T01500083
KDEN 180853Z 26005KT 10SM FEW110 17/06 A3016 RMK AO2 SLP132 T01720056 51007
KDEN 180753Z 26004KT 10SM FEW100 17/06 A3015 RMK AO2 SLP128 T01720056

METAR Board
Radar Display
Forecast Discussion

FOR SITUATIONAL AWARENESS. NOT TO BE USED FOR FLIGHT PLANNING PURPOSES.